Charlottetown, Prince Edward Island

1:31 AM ADT on September 16, 2014 (GMT -0300)
Charlottetown | Change Station
CLOSE
Current Station
Airport
Location: Charlottetown,
Elevation: 157 ft
Nearby Weather Stations

Elev 157 ft 46.29 °N, 63.13 °W | Updated 31 minutes ago

Partly Cloudy
Partly Cloudy
48 °F
Feels Like 48 °F
N
7
Wind Variable Wind from WSW

Today is forecast to be nearly the same temperature as yesterday.

Today
High -- | Low -- °F
--% Chance of Precip.
Yesterday
High -- | Low -- °F
Precip. -- in
6:51 AM 7:22 PM
Waning Gibbous, 49% visible
Pressure 30.04 in
Visibility 15.0 miles
Clouds Few 5000 ft
Dew Point 41 °F
Humidity 76%
Rainfall 0.00 in
Snow Depth Not available.
UV 0 out of 12
Pollen Not available.
Air Quality Not available.
Flu Activity Not available.
METAR CYYG 160400Z 24006KT 15SM FEW050 09/05 A3003 RMK SC1 SLP171

More Conditions Fewer Conditions

Pressure 30.04 in
Visibility 15.0 miles
Clouds Few 5000 ft
Dew Point 41 °F
Humidity 76%
Rainfall 0.00 in
Snow Depth Not available.
UV 0 out of 12
Pollen Not available.
Air Quality Not available.
Flu Activity Not available.
METAR CYYG 160400Z 24006KT 15SM FEW050 09/05 A3003 RMK SC1 SLP171

More Conditions Fewer Conditions

10-Day Weather Forecast

Almanac

Astronomy

Sep. 16, 2014 Rise Set
Actual Time 6:51 AM ADT 7:22 PM ADT
Civil Twilight 6:21 AM ADT 7:52 PM ADT
Nautical Twilight 5:45 AM ADT 8:27 PM ADT
Astronomical Twilight 5:08 AM ADT 9:04 PM ADT
Moon No Moon Rise 2:56 PM ADT
Length of Visible Light 13h 30m
Length of Day
12h 30m
Tomorrow will be 3m 15s shorter.
Waning Gibbous, 49% of the Moon is Illuminated
Today
Waning Gibbous
Sep 24
New
Oct 1
First Quarter
Oct 8
Full
Oct 15
Last Quarter

Yesterday's Extremes

Country Highs Country Lows

Community

WunderPhotos

Upload Photos

1,753,702 photos uploaded!

Nearby

Snow Depth

Not available.

Earthquake Activity

City Distance Mag. Time & Date
No recent earthquake activity has been reported nearby.
Minimum magnitude displayed is 2.5.

Coastal Water Temperatures

Place Temperature
No Stations Reporting

Nearby Weather Stations